METAR Data
IDs: Format: Raw Decoded Include TAF

Data at: 0057 UTC 20 Jul 2019

METAR for:KMUT (Muscatine Muni, IA, US)
Text:KMUT 200055Z AUTO 19009G14KT 10SM CLR 32/26 A2974 RMK AO2
Temperature: 32.0°C ( 90°F)
Dewpoint: 26.0°C ( 79°F) [RH = 71%]
Pressure (altimeter):29.74 inches Hg (1007.2 mb)
Winds:from the S (190 degrees) at 10 MPH (9 knots; 4.6 m/s) gusting to 16 MPH (14 knots; 7.2 m/s)
Visibility:10 or more sm (16+ km)
Ceiling:at least 12,000 feet AGL
Clouds:sky clear below 12,000 feet AGL
QC Flag:automated observation with no human augmentation